createdAt,value
2023-02-23T00:02:30.082Z,74.14
2023-02-23T00:05:37.623Z,73.72
2023-02-23T00:08:41.123Z,73.71
2023-02-23T00:11:44.219Z,72.84
2023-02-23T00:14:46.946Z,73.03
2023-02-23T00:17:51.941Z,72.33
2023-02-23T00:20:58.149Z,72.26
2023-02-23T00:24:08.393Z,72.46
2023-02-23T00:27:17.658Z,72.34
2023-02-23T00:30:20.910Z,72.20
2023-02-23T00:33:23.712Z,72.14
2023-02-23T00:36:33.571Z,71.95
2023-02-23T00:39:36.324Z,71.77
2023-02-23T00:42:40.075Z,71.55
2023-02-23T00:45:42.966Z,70.95
2023-02-23T00:48:46.254Z,71.13
2023-02-23T00:51:49.138Z,70.84
2023-02-23T00:54:52.264Z,70.87
2023-02-23T00:57:54.974Z,70.87
2023-02-23T01:01:01.468Z,70.98
2023-02-23T01:04:04.888Z,71.28
2023-02-23T01:07:07.869Z,70.68
2023-02-23T01:10:19.856Z,70.46
2023-02-23T01:13:25.016Z,70.39
2023-02-23T01:16:33.716Z,70.46
2023-02-23T01:19:36.910Z,70.18
2023-02-23T01:22:39.635Z,70.00
2023-02-23T01:25:44.145Z,70.16
2023-02-23T01:28:54.905Z,70.06
2023-02-23T01:31:59.446Z,69.94
2023-02-23T01:35:04.628Z,69.90
2023-02-23T01:38:07.776Z,69.87
2023-02-23T01:41:10.519Z,69.76
2023-02-23T01:44:13.477Z,69.75
2023-02-23T01:47:17.346Z,70.01
2023-02-23T01:50:20.864Z,69.81
2023-02-23T01:53:25.438Z,69.86
2023-02-23T01:56:34.785Z,69.69
2023-02-23T01:59:44.188Z,69.50
2023-02-23T02:02:49.001Z,69.58
2023-02-23T02:05:52.853Z,69.51
2023-02-23T02:09:06.406Z,69.44
2023-02-23T02:12:12.366Z,69.56
2023-02-23T02:15:22.670Z,69.67
2023-02-23T02:18:38.379Z,69.31
2023-02-23T02:22:00.827Z,69.23
2023-02-23T02:25:15.767Z,69.54
2023-02-23T02:28:38.632Z,69.50
2023-02-23T02:32:01.360Z,69.31
2023-02-23T02:35:24.708Z,69.10
2023-02-23T02:38:53.928Z,69.34
2023-02-23T02:42:22.026Z,69.52
2023-02-23T02:45:35.502Z,69.41
2023-02-23T02:49:20.152Z,69.24
2023-02-23T02:52:43.504Z,69.48
2023-02-23T02:55:48.453Z,69.37
2023-02-23T02:58:53.776Z,69.36
2023-02-23T03:02:16.432Z,69.27
2023-02-23T03:05:43.696Z,69.41
2023-02-23T03:09:14.414Z,69.30
2023-02-23T03:12:50.649Z,69.24
2023-02-23T03:16:41.508Z,69.29
2023-02-23T03:20:19.441Z,69.37
2023-02-23T03:24:05.006Z,69.36
2023-02-23T03:27:44.636Z,69.22
2023-02-23T03:31:06.210Z,69.33
2023-02-23T03:34:40.079Z,69.28
2023-02-23T03:38:33.425Z,69.64
2023-02-23T03:41:58.026Z,69.57
2023-02-23T03:45:26.582Z,69.44
2023-02-23T03:48:51.005Z,69.21
2023-02-23T03:52:24.623Z,69.26
2023-02-23T03:55:54.493Z,69.04
2023-02-23T03:59:20.060Z,69.17
2023-02-23T04:02:43.561Z,69.00
2023-02-23T04:06:09.222Z,68.72
2023-02-23T04:09:31.095Z,68.92
2023-02-23T04:13:11.894Z,68.79
2023-02-23T04:16:15.221Z,68.63
2023-02-23T04:19:18.888Z,68.62
2023-02-23T04:22:23.136Z,68.74
2023-02-23T04:25:27.009Z,68.21
2023-02-23T04:28:30.348Z,68.16
2023-02-23T04:31:33.444Z,68.35
2023-02-23T04:34:36.228Z,68.60
2023-02-23T04:37:39.904Z,68.10
2023-02-23T04:40:42.842Z,68.18
2023-02-23T04:43:45.877Z,67.98
2023-02-23T04:46:48.714Z,67.49
2023-02-23T04:49:51.868Z,67.78
2023-02-23T04:52:55.105Z,67.88
2023-02-23T04:55:59.094Z,67.49
2023-02-23T04:59:02.737Z,67.64
2023-02-23T05:02:06.554Z,67.40
2023-02-23T05:05:10.067Z,66.91
2023-02-23T05:08:13.060Z,67.08
2023-02-23T05:11:15.812Z,66.91
2023-02-23T05:14:19.089Z,67.01
2023-02-23T05:17:21.914Z,66.51
2023-02-23T05:20:25.002Z,66.61
2023-02-23T05:23:27.684Z,66.59
2023-02-23T05:26:30.884Z,66.65
2023-02-23T05:29:33.559Z,66.72
2023-02-23T05:32:36.956Z,66.81
2023-02-23T05:35:41.294Z,66.63
2023-02-23T05:38:46.133Z,66.75
2023-02-23T05:41:48.830Z,66.48
2023-02-23T05:44:52.110Z,66.39
2023-02-23T05:47:55.300Z,66.33
2023-02-23T05:51:08.692Z,66.22
2023-02-23T05:54:11.702Z,66.23
2023-02-23T05:57:14.717Z,66.21
2023-02-23T06:00:18.700Z,66.29
2023-02-23T06:03:22.840Z,66.06
2023-02-23T06:06:26.016Z,66.04
2023-02-23T06:09:29.170Z,65.98
2023-02-23T06:12:32.121Z,65.77
2023-02-23T06:15:35.423Z,65.37
2023-02-23T06:18:38.188Z,64.94
2023-02-23T06:21:41.316Z,64.73
2023-02-23T06:24:44.807Z,64.72
2023-02-23T06:27:48.141Z,64.82
2023-02-23T06:30:54.979Z,64.64
2023-02-23T06:33:58.580Z,64.66
2023-02-23T06:37:01.417Z,64.66
2023-02-23T06:40:05.764Z,64.68
2023-02-23T06:43:08.391Z,64.63
2023-02-23T06:46:11.702Z,64.38
2023-02-23T06:49:16.486Z,64.06
2023-02-23T06:52:20.255Z,64.02
2023-02-23T06:55:22.992Z,63.73
2023-02-23T06:58:26.669Z,63.67
2023-02-23T07:01:30.379Z,63.47
2023-02-23T07:04:34.051Z,63.49
2023-02-23T07:07:37.230Z,63.39
2023-02-23T07:10:40.305Z,63.28
2023-02-23T07:13:43.087Z,63.15
2023-02-23T07:16:46.323Z,62.96
2023-02-23T07:19:49.221Z,62.46
2023-02-23T07:22:52.368Z,61.92
2023-02-23T07:25:58.311Z,62.37
2023-02-23T07:29:02.370Z,62.03
2023-02-23T07:32:05.669Z,61.83
2023-02-23T07:35:09.207Z,61.50
2023-02-23T07:38:13.701Z,61.28
2023-02-23T07:41:16.981Z,61.07
2023-02-23T07:44:20.621Z,60.88
2023-02-23T07:47:31.033Z,60.12
2023-02-23T07:50:35.848Z,60.15
2023-02-23T07:53:40.332Z,60.49
2023-02-23T07:56:43.198Z,60.05
2023-02-23T07:59:46.903Z,59.99
2023-02-23T08:02:49.596Z,59.86
2023-02-23T08:05:52.717Z,59.98
2023-02-23T08:08:55.666Z,59.27
2023-02-23T08:11:58.889Z,59.72
2023-02-23T08:15:01.598Z,59.84
2023-02-23T08:18:05.426Z,59.77
2023-02-23T08:21:08.155Z,59.88
2023-02-23T08:24:11.244Z,59.49
2023-02-23T08:27:14.270Z,59.34
2023-02-23T08:30:18.122Z,59.28
2023-02-23T08:33:21.097Z,59.34
2023-02-23T08:36:24.223Z,59.86
2023-02-23T08:39:27.017Z,59.29
2023-02-23T08:42:30.561Z,59.19
2023-02-23T08:45:33.764Z,59.21
2023-02-23T08:48:36.851Z,59.15
2023-02-23T08:51:41.640Z,58.70
2023-02-23T08:54:44.674Z,58.71
2023-02-23T08:57:47.409Z,58.67
2023-02-23T09:00:50.726Z,57.98
2023-02-23T09:03:53.518Z,57.96
2023-02-23T09:06:56.609Z,57.85
2023-02-23T09:09:59.421Z,58.75
2023-02-23T09:13:03.168Z,57.76
2023-02-23T09:16:07.940Z,57.67
2023-02-23T09:19:11.300Z,57.87
2023-02-23T09:22:14.257Z,57.45
2023-02-23T09:25:19.472Z,57.47
2023-02-23T09:28:22.427Z,57.11
2023-02-23T09:31:25.635Z,57.66
2023-02-23T09:34:31.192Z,57.55
2023-02-23T09:37:34.292Z,58.03
2023-02-23T09:40:50.104Z,57.50
2023-02-23T09:44:19.862Z,57.37
2023-02-23T09:47:38.750Z,56.87
2023-02-23T09:50:46.907Z,57.09
2023-02-23T09:53:59.711Z,57.05
2023-02-23T09:57:11.859Z,56.73
2023-02-23T10:00:23.065Z,57.08
2023-02-23T10:03:40.088Z,56.71
2023-02-23T10:06:49.345Z,56.98
2023-02-23T10:10:10.836Z,57.63
2023-02-23T10:13:40.247Z,57.73
2023-02-23T10:17:15.121Z,57.60
2023-02-23T10:20:23.505Z,57.54
2023-02-23T10:23:31.823Z,57.17
2023-02-23T10:27:00.599Z,57.68
2023-02-23T10:30:05.065Z,57.46
2023-02-23T10:33:24.072Z,57.28
2023-02-23T10:36:30.310Z,57.18
2023-02-23T10:39:34.808Z,57.04
2023-02-23T10:42:37.940Z,56.96
2023-02-23T10:45:49.490Z,57.42
2023-02-23T10:48:57.226Z,57.00
2023-02-23T10:52:03.158Z,56.78
2023-02-23T10:55:08.004Z,56.76
2023-02-23T10:58:20.838Z,57.00
2023-02-23T11:02:00.335Z,57.13
2023-02-23T11:05:07.045Z,57.12
2023-02-23T11:08:32.071Z,56.63
2023-02-23T11:11:34.831Z,56.76
2023-02-23T11:14:38.391Z,56.67
2023-02-23T11:17:41.076Z,56.30
2023-02-23T11:20:44.583Z,56.47
2023-02-23T11:23:51.629Z,56.71
2023-02-23T11:27:03.938Z,57.13
2023-02-23T11:30:07.901Z,56.81
2023-02-23T11:33:17.838Z,56.85
2023-02-23T11:36:28.686Z,57.41
2023-02-23T11:39:32.442Z,57.08
2023-02-23T11:42:35.316Z,57.03
2023-02-23T11:45:50.484Z,57.25
2023-02-23T11:48:59.988Z,56.67
2023-02-23T11:52:03.794Z,57.57
2023-02-23T11:55:12.754Z,57.07
2023-02-23T11:58:44.643Z,57.04
2023-02-23T12:01:51.530Z,56.82
2023-02-23T12:05:25.751Z,56.93
2023-02-23T12:08:44.434Z,56.91
2023-02-23T12:11:57.588Z,56.93
2023-02-23T12:15:12.176Z,57.01
2023-02-23T12:18:43.227Z,56.98
2023-02-23T12:21:53.959Z,57.09
2023-02-23T12:25:02.555Z,56.98
2023-02-23T12:28:20.398Z,57.00
2023-02-23T12:32:06.637Z,57.24
2023-02-23T12:35:24.454Z,57.34
2023-02-23T12:38:48.939Z,57.12
2023-02-23T12:42:17.789Z,56.39
2023-02-23T12:45:37.499Z,56.47
2023-02-23T12:49:14.228Z,56.21
2023-02-23T12:52:26.527Z,56.45
2023-02-23T12:55:47.335Z,56.25
2023-02-23T12:59:13.608Z,56.40
2023-02-23T13:02:29.177Z,56.25
2023-02-23T13:05:38.211Z,56.22
2023-02-23T13:09:09.348Z,55.46
2023-02-23T13:12:30.004Z,54.91
2023-02-23T13:15:39.858Z,54.59
2023-02-23T13:19:07.128Z,54.08
2023-02-23T13:22:33.870Z,53.68
2023-02-23T13:25:40.259Z,53.27
2023-02-23T13:29:05.677Z,52.24
2023-02-23T13:32:13.419Z,52.64
2023-02-23T13:35:21.853Z,52.17
2023-02-23T13:38:53.382Z,52.64
2023-02-23T13:42:11.411Z,51.56
2023-02-23T13:45:27.471Z,49.73
2023-02-23T13:48:33.287Z,48.92
2023-02-23T13:51:47.467Z,49.24
2023-02-23T13:55:04.154Z,48.13
2023-02-23T13:58:33.730Z,51.07
2023-02-23T14:01:39.782Z,51.64
2023-02-23T14:04:43.627Z,52.10
2023-02-23T14:07:51.954Z,52.70
2023-02-23T14:10:57.536Z,52.77
2023-02-23T14:14:03.289Z,54.32
2023-02-23T14:17:40.274Z,53.52
2023-02-23T14:20:58.209Z,53.68
2023-02-23T14:24:27.063Z,54.20
2023-02-23T14:27:41.812Z,54.43
2023-02-23T14:30:51.387Z,54.70
2023-02-23T14:33:59.802Z,54.46
2023-02-23T14:37:18.676Z,54.60
2023-02-23T14:40:32.091Z,55.25
2023-02-23T14:43:44.035Z,55.26
2023-02-23T14:47:08.983Z,55.34
2023-02-23T14:50:18.225Z,56.00
2023-02-23T14:53:24.585Z,56.33
2023-02-23T14:56:42.221Z,56.57
2023-02-23T14:59:53.475Z,57.02
2023-02-23T15:03:12.716Z,57.63
2023-02-23T15:06:15.835Z,57.88
2023-02-23T15:09:25.253Z,58.09
2023-02-23T15:12:30.870Z,58.32
2023-02-23T15:15:34.109Z,58.55
2023-02-23T15:19:29.933Z,58.11
2023-02-23T15:22:39.087Z,58.51
2023-02-23T15:25:45.058Z,58.67
2023-02-23T15:28:48.221Z,58.56
2023-02-23T15:31:54.177Z,58.67
2023-02-23T15:34:57.411Z,59.04
2023-02-23T15:38:13.676Z,58.92
2023-02-23T15:41:37.274Z,59.28
2023-02-23T15:44:44.958Z,59.52
2023-02-23T15:47:52.805Z,59.37
2023-02-23T15:50:57.984Z,59.46
2023-02-23T15:54:08.235Z,59.96
2023-02-23T15:57:21.581Z,59.77
2023-02-23T16:00:39.687Z,60.44
2023-02-23T16:03:54.976Z,60.27
2023-02-23T16:07:15.588Z,60.69
2023-02-23T16:10:23.106Z,60.57
2023-02-23T16:13:27.585Z,60.37
2023-02-23T16:16:34.451Z,60.44
2023-02-23T16:19:41.771Z,60.44
2023-02-23T16:22:46.712Z,60.77
2023-02-23T16:25:54.383Z,60.53
2023-02-23T16:29:02.881Z,60.71
2023-02-23T16:32:16.915Z,61.16
2023-02-23T16:35:20.840Z,60.86
2023-02-23T16:38:53.104Z,60.69
2023-02-23T16:42:00.171Z,60.60
2023-02-23T16:45:03.384Z,60.63
2023-02-23T16:48:12.117Z,60.52
2023-02-23T16:51:16.656Z,60.63
2023-02-23T16:54:20.136Z,60.86
2023-02-23T16:57:29.328Z,60.69
2023-02-23T17:00:34.901Z,60.48
2023-02-23T17:03:47.387Z,60.54
2023-02-23T17:06:58.360Z,60.55
2023-02-23T17:10:02.954Z,60.54
2023-02-23T17:13:13.611Z,60.64
2023-02-23T17:16:17.140Z,60.78
2023-02-23T17:19:23.631Z,61.01
2023-02-23T17:22:29.426Z,60.78
2023-02-23T17:25:33.951Z,60.89
2023-02-23T17:28:38.798Z,60.85
2023-02-23T17:31:43.703Z,60.76
2023-02-23T17:34:50.505Z,60.83
2023-02-23T17:37:55.099Z,61.09
2023-02-23T17:40:58.367Z,60.79
2023-02-23T17:44:06.497Z,61.00
2023-02-23T17:47:10.864Z,60.85
2023-02-23T17:50:15.491Z,60.77
2023-02-23T17:53:20.710Z,60.97
2023-02-23T17:56:24.832Z,60.99
2023-02-23T17:59:31.770Z,60.82
2023-02-23T18:02:37.373Z,60.60
2023-02-23T18:05:43.990Z,60.71
2023-02-23T18:08:47.721Z,60.28
2023-02-23T18:11:51.819Z,60.27
2023-02-23T18:14:55.737Z,60.10
2023-02-23T18:18:02.312Z,60.12
2023-02-23T18:21:15.185Z,59.96
2023-02-23T18:24:19.178Z,59.73
2023-02-23T18:27:24.322Z,59.63
2023-02-23T18:30:28.553Z,59.53
2023-02-23T18:33:31.738Z,59.84
2023-02-23T18:36:37.214Z,59.95
2023-02-23T18:39:42.973Z,59.97
2023-02-23T18:42:46.986Z,59.88
2023-02-23T18:45:50.859Z,59.75
2023-02-23T18:48:56.105Z,59.75
2023-02-23T18:52:01.929Z,59.66
2023-02-23T18:55:08.591Z,59.63
2023-02-23T18:58:12.447Z,59.86
2023-02-23T19:01:22.840Z,59.78
2023-02-23T19:04:29.927Z,59.87
2023-02-23T19:07:35.755Z,59.80
2023-02-23T19:10:47.001Z,59.64
2023-02-23T19:13:57.397Z,59.71
2023-02-23T19:17:03.818Z,59.90
2023-02-23T19:20:13.679Z,59.79
2023-02-23T19:23:18.096Z,59.81
2023-02-23T19:26:23.355Z,59.78
2023-02-23T19:29:28.504Z,59.61
2023-02-23T19:32:33.944Z,59.77
2023-02-23T19:35:42.365Z,59.28
2023-02-23T19:38:47.199Z,59.25
2023-02-23T19:41:52.263Z,59.17
2023-02-23T19:44:57.047Z,59.07
2023-02-23T19:48:00.661Z,59.10
2023-02-23T19:51:05.749Z,59.15
2023-02-23T19:54:10.844Z,59.18
2023-02-23T19:57:15.797Z,59.32
2023-02-23T20:00:21.712Z,59.34
2023-02-23T20:03:29.817Z,59.25
2023-02-23T20:06:40.292Z,59.00
2023-02-23T20:09:45.282Z,58.90
2023-02-23T20:12:52.308Z,58.70
2023-02-23T20:16:07.882Z,58.77
2023-02-23T20:19:14.441Z,58.51
2023-02-23T20:22:18.909Z,58.31
2023-02-23T20:25:24.440Z,58.29
2023-02-23T20:28:29.023Z,58.24
2023-02-23T20:31:36.088Z,58.10
2023-02-23T20:34:40.289Z,58.37
2023-02-23T20:37:46.410Z,58.34
2023-02-23T20:40:52.366Z,58.16
2023-02-23T20:43:57.199Z,58.27
2023-02-23T20:47:01.849Z,58.46
2023-02-23T20:50:11.477Z,58.08
2023-02-23T20:53:20.606Z,58.03
2023-02-23T20:56:24.844Z,57.93
2023-02-23T20:59:32.820Z,57.92
2023-02-23T21:02:38.007Z,58.07
2023-02-23T21:05:42.505Z,58.11
2023-02-23T21:08:49.119Z,57.78
2023-02-23T21:11:53.205Z,57.85
2023-02-23T21:14:57.249Z,57.82
2023-02-23T21:18:01.079Z,57.76
2023-02-23T21:21:10.173Z,57.92
2023-02-23T21:24:15.868Z,57.98
2023-02-23T21:27:19.816Z,57.82
2023-02-23T21:30:25.088Z,57.90
2023-02-23T21:33:28.775Z,58.00
2023-02-23T21:36:35.968Z,58.14
2023-02-23T21:39:39.125Z,58.37
2023-02-23T21:42:44.142Z,58.40
2023-02-23T21:45:47.655Z,58.23
2023-02-23T21:48:50.932Z,58.69
2023-02-23T21:51:55.372Z,58.59
2023-02-23T21:55:05.699Z,58.49
2023-02-23T21:58:12.269Z,58.53
2023-02-23T22:01:26.764Z,58.74
2023-02-23T22:04:29.804Z,58.58
2023-02-23T22:07:32.606Z,59.11
2023-02-23T22:10:35.762Z,58.87
2023-02-23T22:13:38.536Z,59.29
2023-02-23T22:16:42.307Z,59.34
2023-02-23T22:19:45.280Z,59.46
2023-02-23T22:22:50.663Z,60.18
2023-02-23T22:25:54.101Z,59.96
2023-02-23T22:28:57.102Z,59.82
2023-02-23T22:31:59.979Z,59.79
2023-02-23T22:35:04.854Z,59.98
2023-02-23T22:38:07.502Z,60.17
2023-02-23T22:41:14.475Z,60.11
2023-02-23T22:44:22.820Z,60.40
2023-02-23T22:47:25.885Z,60.70
2023-02-23T22:50:28.972Z,60.55
2023-02-23T22:53:32.174Z,60.70
2023-02-23T22:56:36.658Z,60.60
2023-02-23T22:59:39.752Z,60.81
2023-02-23T23:02:42.741Z,60.68
2023-02-23T23:05:51.236Z,60.85
2023-02-23T23:08:56.576Z,61.06
2023-02-23T23:11:59.584Z,61.37
2023-02-23T23:15:05.434Z,61.17
2023-02-23T23:18:14.232Z,61.30
2023-02-23T23:21:22.134Z,61.49
2023-02-23T23:24:25.673Z,61.71
2023-02-23T23:27:28.368Z,61.62
2023-02-23T23:30:31.405Z,61.42
2023-02-23T23:33:34.774Z,61.56
2023-02-23T23:36:53.500Z,61.47
2023-02-23T23:39:59.479Z,61.50
2023-02-23T23:43:02.458Z,61.73
2023-02-23T23:46:06.497Z,61.64
2023-02-23T23:49:13.419Z,61.82
2023-02-23T23:52:18.004Z,61.84
2023-02-23T23:55:21.114Z,61.76
2023-02-23T23:58:26.947Z,62.02
